createdAt,value
2023-06-28T00:00:53.042Z,65.93
2023-06-28T00:03:14.882Z,65.84
2023-06-28T00:05:36.710Z,66.37
2023-06-28T00:07:58.321Z,66.20
2023-06-28T00:10:19.989Z,66.44
2023-06-28T00:12:41.855Z,66.32
2023-06-28T00:15:04.607Z,66.49
2023-06-28T00:17:30.633Z,66.30
2023-06-28T00:19:52.308Z,66.67
2023-06-28T00:22:14.005Z,66.65
2023-06-28T00:24:35.718Z,66.78
2023-06-28T00:26:57.512Z,67.00
2023-06-28T00:29:19.178Z,66.99
2023-06-28T00:31:40.920Z,66.95
2023-06-28T00:34:03.627Z,67.20
2023-06-28T00:36:26.008Z,67.51
2023-06-28T00:38:47.656Z,67.57
2023-06-28T00:41:09.677Z,67.65
2023-06-28T00:43:31.428Z,67.55
2023-06-28T00:45:53.045Z,67.66
2023-06-28T00:48:15.129Z,67.91
2023-06-28T00:50:39.978Z,68.00
2023-06-28T00:53:01.921Z,67.92
2023-06-28T00:55:23.724Z,68.29
2023-06-28T00:57:45.536Z,68.23
2023-06-28T01:00:13.835Z,68.88
2023-06-28T01:02:35.566Z,68.60
2023-06-28T01:04:59.981Z,68.62
2023-06-28T01:07:27.164Z,68.82
2023-06-28T01:09:49.121Z,68.23
2023-06-28T01:12:12.411Z,68.57
2023-06-28T01:14:34.318Z,68.47
2023-06-28T01:16:56.258Z,68.35
2023-06-28T01:19:18.857Z,68.79
2023-06-28T01:21:46.545Z,68.60
2023-06-28T01:24:11.965Z,68.49
2023-06-28T01:26:34.244Z,68.49
2023-06-28T01:28:57.287Z,68.51
2023-06-28T01:31:21.355Z,68.59
2023-06-28T01:33:43.738Z,68.70
2023-06-28T01:36:05.992Z,68.80
2023-06-28T01:38:29.880Z,68.59
2023-06-28T01:40:53.954Z,68.77
2023-06-28T01:43:15.778Z,68.75
2023-06-28T01:45:38.479Z,68.79
2023-06-28T01:48:01.397Z,69.01
2023-06-28T01:50:23.327Z,69.14
2023-06-28T01:52:45.015Z,69.08
2023-06-28T01:55:07.263Z,69.27
2023-06-28T01:57:28.946Z,69.39
2023-06-28T01:59:50.687Z,69.47
2023-06-28T02:02:12.510Z,69.62
2023-06-28T02:04:34.196Z,69.82
2023-06-28T02:06:58.179Z,69.82
2023-06-28T02:09:21.241Z,70.25
2023-06-28T02:11:42.971Z,70.63
2023-06-28T02:14:04.735Z,70.85
2023-06-28T02:16:28.700Z,71.19
2023-06-28T02:18:52.262Z,71.47
2023-06-28T02:21:15.425Z,71.43
2023-06-28T02:23:37.084Z,71.50
2023-06-28T02:25:59.485Z,71.52
2023-06-28T02:28:21.334Z,71.48
2023-06-28T02:30:43.520Z,71.67
2023-06-28T02:33:06.168Z,71.62
2023-06-28T02:35:27.922Z,71.67
2023-06-28T02:37:49.709Z,72.19
2023-06-28T02:40:14.187Z,72.50
2023-06-28T02:42:35.912Z,72.21
2023-06-28T02:44:58.416Z,72.59
2023-06-28T02:47:20.110Z,72.36
2023-06-28T02:49:42.250Z,72.64
2023-06-28T02:52:04.476Z,72.76
2023-06-28T02:54:26.195Z,72.91
2023-06-28T02:56:47.910Z,72.75
2023-06-28T02:59:17.931Z,72.90
2023-06-28T03:01:40.576Z,72.68
2023-06-28T03:04:02.350Z,73.05
2023-06-28T03:06:24.522Z,72.93
2023-06-28T03:08:46.774Z,72.97
2023-06-28T03:11:09.253Z,73.28
2023-06-28T03:13:31.045Z,73.19
2023-06-28T03:15:53.167Z,73.36
2023-06-28T03:18:15.485Z,73.62
2023-06-28T03:20:37.292Z,73.63
2023-06-28T03:22:59.214Z,73.59
2023-06-28T03:25:21.062Z,73.59
2023-06-28T03:27:43.333Z,73.48
2023-06-28T03:30:06.350Z,73.03
2023-06-28T03:32:28.183Z,73.36
2023-06-28T03:34:49.874Z,73.27
2023-06-28T03:37:15.315Z,73.11
2023-06-28T03:39:36.992Z,73.13
2023-06-28T03:41:58.710Z,73.69
2023-06-28T03:44:20.418Z,73.52
2023-06-28T03:46:42.147Z,73.47
2023-06-28T03:49:05.731Z,73.55
2023-06-28T03:51:27.520Z,73.31
2023-06-28T03:53:50.047Z,73.79
2023-06-28T03:56:11.734Z,73.71
2023-06-28T03:58:33.456Z,74.12
2023-06-28T04:00:55.144Z,73.71
2023-06-28T04:03:19.598Z,73.89
2023-06-28T04:05:41.274Z,74.23
2023-06-28T04:08:03.444Z,74.29
2023-06-28T04:10:26.325Z,74.39
2023-06-28T04:12:48.388Z,74.35
2023-06-28T04:15:11.808Z,74.36
2023-06-28T04:17:33.544Z,74.54
2023-06-28T04:19:55.893Z,74.80
2023-06-28T04:22:17.646Z,74.58
2023-06-28T04:24:39.307Z,74.78
2023-06-28T04:27:01.917Z,74.83
2023-06-28T04:29:23.737Z,74.89
2023-06-28T04:31:45.508Z,74.98
2023-06-28T04:34:08.587Z,74.92
2023-06-28T04:36:30.383Z,75.26
2023-06-28T04:38:53.984Z,75.19
2023-06-28T04:41:15.754Z,75.12
2023-06-28T04:43:41.810Z,75.30
2023-06-28T04:46:03.771Z,75.68
2023-06-28T04:48:25.594Z,75.20
2023-06-28T04:50:48.771Z,75.42
2023-06-28T04:53:10.480Z,75.42
2023-06-28T04:55:36.017Z,75.52
2023-06-28T04:57:58.108Z,75.23
2023-06-28T05:00:22.499Z,75.21
2023-06-28T05:02:44.218Z,75.51
2023-06-28T05:05:06.692Z,75.39
2023-06-28T05:07:29.563Z,75.32
2023-06-28T05:09:51.369Z,75.47
2023-06-28T05:12:13.089Z,75.26
2023-06-28T05:14:34.999Z,75.09
2023-06-28T05:16:57.300Z,75.46
2023-06-28T05:19:24.050Z,75.48
2023-06-28T05:21:45.847Z,75.53
2023-06-28T05:24:07.851Z,75.71
2023-06-28T05:26:30.830Z,75.72
2023-06-28T05:28:52.573Z,75.84
2023-06-28T05:31:14.443Z,75.30
2023-06-28T05:33:36.071Z,75.58
2023-06-28T05:35:57.739Z,75.57
2023-06-28T05:38:19.470Z,75.30
2023-06-28T05:40:41.640Z,75.61
2023-06-28T05:43:03.913Z,75.75
2023-06-28T05:45:27.418Z,75.79
2023-06-28T05:47:51.092Z,75.98
2023-06-28T05:50:13.029Z,75.99
2023-06-28T05:52:34.836Z,76.02
2023-06-28T05:54:56.523Z,75.76
2023-06-28T05:57:18.165Z,75.58
2023-06-28T05:59:39.955Z,75.62
2023-06-28T06:02:01.753Z,75.83
2023-06-28T06:04:23.728Z,75.88
2023-06-28T06:06:45.562Z,75.96
2023-06-28T06:09:07.342Z,75.92
2023-06-28T06:11:29.484Z,75.96
2023-06-28T06:13:51.424Z,76.04
2023-06-28T06:16:13.261Z,75.91
2023-06-28T06:18:37.512Z,76.16
2023-06-28T06:20:59.284Z,76.27
2023-06-28T06:23:21.164Z,76.67
2023-06-28T06:25:43.509Z,76.29
2023-06-28T06:28:05.388Z,76.66
2023-06-28T06:30:27.287Z,76.60
2023-06-28T06:32:50.169Z,76.44
2023-06-28T06:35:11.958Z,76.74
2023-06-28T06:37:33.919Z,76.62
2023-06-28T06:39:55.840Z,76.29
2023-06-28T06:42:17.707Z,76.67
2023-06-28T06:44:39.668Z,76.57
2023-06-28T06:47:02.716Z,76.49
2023-06-28T06:49:24.596Z,76.48
2023-06-28T06:51:46.278Z,76.59
2023-06-28T06:54:09.386Z,76.49
2023-06-28T06:56:32.436Z,76.45
2023-06-28T06:58:54.164Z,76.30
2023-06-28T07:01:16.032Z,76.63
2023-06-28T07:03:37.749Z,76.57
2023-06-28T07:06:00.387Z,76.94
2023-06-28T07:08:22.294Z,76.73
2023-06-28T07:10:44.040Z,76.63
2023-06-28T07:13:05.847Z,76.40
2023-06-28T07:15:27.630Z,76.11
2023-06-28T07:17:49.478Z,76.38
2023-06-28T07:20:11.615Z,76.32
2023-06-28T07:22:33.346Z,76.55
2023-06-28T07:24:55.043Z,75.96
2023-06-28T07:27:16.826Z,76.19
2023-06-28T07:29:38.475Z,76.12
2023-06-28T07:32:00.407Z,76.24
2023-06-28T07:34:22.826Z,75.95
2023-06-28T07:36:44.561Z,75.86
2023-06-28T07:39:06.624Z,75.57
2023-06-28T07:41:28.255Z,75.58
2023-06-28T07:43:50.747Z,75.66
2023-06-28T07:46:12.546Z,75.69
2023-06-28T07:48:34.553Z,75.15
2023-06-28T07:50:56.797Z,75.13
2023-06-28T07:53:18.504Z,75.42
2023-06-28T07:55:40.454Z,75.45
2023-06-28T07:58:03.121Z,75.31
2023-06-28T08:00:28.249Z,75.22
2023-06-28T08:02:50.002Z,75.05
2023-06-28T08:05:11.830Z,75.28
2023-06-28T08:07:33.530Z,75.48
2023-06-28T08:09:56.917Z,75.53
2023-06-28T08:12:18.678Z,75.85
2023-06-28T08:14:41.102Z,75.42
2023-06-28T08:17:03.175Z,74.52
2023-06-28T08:19:26.185Z,74.64
2023-06-28T08:21:48.024Z,74.81
2023-06-28T08:24:09.827Z,74.63
2023-06-28T08:26:31.582Z,74.67
2023-06-28T08:31:17.923Z,73.94
2023-06-28T08:33:41.564Z,73.98
2023-06-28T08:36:05.033Z,73.75
2023-06-28T08:38:26.858Z,73.42
2023-06-28T08:40:50.053Z,73.58
2023-06-28T08:43:17.493Z,73.30
2023-06-28T08:45:40.279Z,73.26
2023-06-28T08:48:12.785Z,72.86
2023-06-28T08:50:44.576Z,72.49
2023-06-28T08:53:10.843Z,72.28
2023-06-28T08:55:32.920Z,72.33
2023-06-28T08:57:55.978Z,72.40
2023-06-28T09:00:18.438Z,72.39
2023-06-28T09:02:43.821Z,71.97
2023-06-28T09:05:08.602Z,71.55
2023-06-28T09:07:35.684Z,71.55
2023-06-28T09:09:57.967Z,72.05
2023-06-28T09:12:21.298Z,72.02
2023-06-28T09:14:43.291Z,72.12
2023-06-28T09:17:05.455Z,72.34
2023-06-28T09:19:27.244Z,72.35
2023-06-28T09:21:49.055Z,72.47
2023-06-28T09:24:13.619Z,72.13
2023-06-28T09:26:36.241Z,72.31
2023-06-28T09:29:08.608Z,72.11
2023-06-28T09:31:33.682Z,72.00
2023-06-28T09:33:57.910Z,71.40
2023-06-28T09:36:20.178Z,71.01
2023-06-28T09:38:45.666Z,71.30
2023-06-28T09:41:07.477Z,70.92
2023-06-28T09:43:35.141Z,70.10
2023-06-28T09:45:56.879Z,69.61
2023-06-28T09:48:24.296Z,69.46
2023-06-28T09:50:47.680Z,69.59
2023-06-28T09:53:12.026Z,69.98
2023-06-28T09:55:34.280Z,70.03
2023-06-28T09:57:58.760Z,69.37
2023-06-28T10:00:21.891Z,68.64
2023-06-28T10:02:44.035Z,67.24
2023-06-28T10:05:08.351Z,67.20
2023-06-28T10:07:30.749Z,66.62
2023-06-28T10:09:54.782Z,66.73
2023-06-28T10:12:22.586Z,66.58
2023-06-28T10:14:59.321Z,66.35
2023-06-28T10:17:25.014Z,65.68
2023-06-28T10:19:49.592Z,65.38
2023-06-28T10:22:12.908Z,65.93
2023-06-28T10:24:37.848Z,65.64
2023-06-28T10:27:01.687Z,65.53
2023-06-28T10:29:23.532Z,65.32
2023-06-28T10:31:47.216Z,64.73
2023-06-28T10:34:12.043Z,64.14
2023-06-28T10:36:34.162Z,63.98
2023-06-28T10:38:56.134Z,63.79
2023-06-28T10:41:19.696Z,63.10
2023-06-28T10:43:42.096Z,62.73
2023-06-28T10:46:03.976Z,62.05
2023-06-28T10:48:29.151Z,61.06
2023-06-28T10:50:52.285Z,60.52
2023-06-28T10:53:28.844Z,60.97
2023-06-28T10:56:11.178Z,60.66
2023-06-28T10:58:48.791Z,60.32
2023-06-28T11:01:13.123Z,59.07
2023-06-28T11:03:45.506Z,59.00
2023-06-28T11:06:08.938Z,57.67
2023-06-28T11:08:46.182Z,57.18
2023-06-28T11:11:23.394Z,56.83
2023-06-28T11:13:49.233Z,56.51
2023-06-28T11:16:19.856Z,56.27
2023-06-28T11:18:41.765Z,55.97
2023-06-28T11:21:05.281Z,55.48
2023-06-28T11:23:47.643Z,56.18
2023-06-28T11:26:15.926Z,56.21
2023-06-28T11:28:37.765Z,55.89
2023-06-28T11:31:15.510Z,55.84
2023-06-28T11:33:37.994Z,55.12
2023-06-28T11:35:59.844Z,55.50
2023-06-28T11:38:22.491Z,55.98
2023-06-28T11:40:44.575Z,55.02
2023-06-28T11:43:06.367Z,54.46
2023-06-28T11:45:29.254Z,55.33
2023-06-28T11:47:51.328Z,54.37
2023-06-28T11:50:13.421Z,54.97
2023-06-28T11:52:35.307Z,54.64
2023-06-28T11:54:59.126Z,54.10
2023-06-28T11:57:20.923Z,53.25
2023-06-28T11:59:53.655Z,52.79
2023-06-28T12:02:15.534Z,52.94
2023-06-28T12:04:39.577Z,52.77
2023-06-28T12:07:02.862Z,52.67
2023-06-28T12:09:30.808Z,52.64
2023-06-28T12:11:54.889Z,52.63
2023-06-28T12:14:16.696Z,52.20
2023-06-28T12:16:38.466Z,52.67
2023-06-28T12:19:04.068Z,52.28
2023-06-28T12:21:29.396Z,52.01
2023-06-28T12:23:52.136Z,52.64
2023-06-28T12:26:13.916Z,51.60
2023-06-28T12:28:36.473Z,50.78
2023-06-28T12:30:58.932Z,50.93
2023-06-28T12:33:24.220Z,50.53
2023-06-28T12:35:47.300Z,49.47
2023-06-28T12:38:09.520Z,49.68
2023-06-28T12:40:34.315Z,49.31
2023-06-28T12:43:13.746Z,49.18
2023-06-28T12:45:45.168Z,49.24
2023-06-28T12:48:06.866Z,49.51
2023-06-28T12:50:28.575Z,49.51
2023-06-28T12:52:50.435Z,49.35
2023-06-28T12:55:13.645Z,49.78
2023-06-28T12:57:36.299Z,49.82
2023-06-28T12:59:58.091Z,49.42
2023-06-28T13:02:21.694Z,48.06
2023-06-28T13:04:43.676Z,47.82
2023-06-28T13:07:07.645Z,47.43
2023-06-28T13:09:29.434Z,46.94
2023-06-28T13:11:51.176Z,46.37
2023-06-28T13:14:13.024Z,46.24
2023-06-28T13:16:34.733Z,45.67
2023-06-28T13:18:56.438Z,45.67
2023-06-28T13:21:19.329Z,46.66
2023-06-28T13:23:41.022Z,46.53
2023-06-28T13:26:02.931Z,46.14
2023-06-28T13:28:24.817Z,46.57
2023-06-28T13:30:46.628Z,46.40
2023-06-28T13:33:08.465Z,46.91
2023-06-28T13:35:30.353Z,46.70
2023-06-28T13:37:52.103Z,46.41
2023-06-28T13:40:15.185Z,45.88
2023-06-28T13:42:36.925Z,46.10
2023-06-28T13:44:58.778Z,45.90
2023-06-28T13:47:20.662Z,45.84
2023-06-28T13:49:42.533Z,45.78
2023-06-28T13:52:05.608Z,45.72
2023-06-28T13:54:27.302Z,45.16
2023-06-28T13:56:49.080Z,45.02
2023-06-28T13:59:10.919Z,45.45
2023-06-28T14:01:33.012Z,45.57
2023-06-28T14:03:54.780Z,45.53
2023-06-28T14:06:16.792Z,44.99
2023-06-28T14:08:38.676Z,45.37
2023-06-28T14:11:00.701Z,46.54
2023-06-28T14:13:22.484Z,46.44
2023-06-28T14:15:44.932Z,46.59
2023-06-28T14:18:07.056Z,46.49
2023-06-28T14:20:28.816Z,46.45
2023-06-28T14:22:52.096Z,46.47
2023-06-28T14:25:13.862Z,46.32
2023-06-28T14:27:35.602Z,46.81
2023-06-28T14:29:57.344Z,46.76
2023-06-28T14:32:19.289Z,46.93
2023-06-28T14:34:41.099Z,47.17
2023-06-28T14:37:03.008Z,47.10
2023-06-28T14:39:24.804Z,46.32
2023-06-28T14:41:46.541Z,46.61
2023-06-28T14:44:08.341Z,46.48
2023-06-28T14:46:30.220Z,46.36
2023-06-28T14:48:52.034Z,46.65
2023-06-28T14:51:13.758Z,46.78
2023-06-28T14:53:38.242Z,46.51
2023-06-28T14:56:00.159Z,46.57
2023-06-28T14:58:21.860Z,47.06
2023-06-28T15:00:43.677Z,47.69
2023-06-28T15:03:05.627Z,47.53
2023-06-28T15:05:27.423Z,47.96
2023-06-28T15:07:49.190Z,48.66
2023-06-28T15:10:11.032Z,49.66
2023-06-28T15:12:32.731Z,49.86
2023-06-28T15:14:54.492Z,49.62
2023-06-28T15:17:16.852Z,49.71
2023-06-28T15:19:38.741Z,50.05
2023-06-28T15:22:00.661Z,50.13
2023-06-28T15:24:22.620Z,50.30
2023-06-28T15:26:44.847Z,50.37
2023-06-28T15:29:06.609Z,50.84
2023-06-28T15:31:29.412Z,50.91
2023-06-28T15:33:51.294Z,50.89
2023-06-28T15:36:13.487Z,51.32
2023-06-28T15:38:35.258Z,51.39
2023-06-28T15:40:57.129Z,51.48
2023-06-28T15:43:18.887Z,51.21
2023-06-28T15:45:40.967Z,51.43
2023-06-28T15:48:02.803Z,51.49
2023-06-28T15:50:24.757Z,52.15
2023-06-28T15:52:49.018Z,52.54
2023-06-28T15:55:11.888Z,52.77
2023-06-28T15:57:34.343Z,52.73
2023-06-28T15:59:56.156Z,53.09
2023-06-28T16:02:18.090Z,53.43
2023-06-28T16:04:39.826Z,53.17
2023-06-28T16:07:02.083Z,53.48
2023-06-28T16:09:23.860Z,53.38
2023-06-28T16:11:45.508Z,53.50
2023-06-28T16:14:07.300Z,54.03
2023-06-28T16:16:30.049Z,53.71
2023-06-28T16:18:52.153Z,53.85
2023-06-28T16:21:13.857Z,54.08
2023-06-28T16:23:35.570Z,54.48
2023-06-28T16:25:57.211Z,54.52
2023-06-28T16:28:18.942Z,54.72
2023-06-28T16:30:41.697Z,55.03
2023-06-28T16:33:10.466Z,54.59
2023-06-28T16:35:32.157Z,54.76
2023-06-28T16:37:54.018Z,54.92
2023-06-28T16:40:15.872Z,54.57
2023-06-28T16:42:37.546Z,55.35
2023-06-28T16:44:59.215Z,55.34
2023-06-28T16:47:20.873Z,55.28
2023-06-28T16:49:42.574Z,54.73
2023-06-28T16:52:04.907Z,54.49
2023-06-28T16:54:26.911Z,54.10
2023-06-28T16:56:48.908Z,54.48
2023-06-28T16:59:12.156Z,54.56
2023-06-28T17:01:34.201Z,54.50
2023-06-28T17:03:56.111Z,54.50
2023-06-28T17:06:17.944Z,54.77
2023-06-28T17:08:39.728Z,54.43
2023-06-28T17:11:01.534Z,54.43
2023-06-28T17:13:23.268Z,54.52
2023-06-28T17:15:45.856Z,54.40
2023-06-28T17:18:08.414Z,54.18
2023-06-28T17:20:30.153Z,54.21
2023-06-28T17:22:51.817Z,54.19
2023-06-28T17:25:13.531Z,54.53
2023-06-28T17:27:35.297Z,54.79
2023-06-28T17:29:56.965Z,54.84
2023-06-28T17:32:18.686Z,54.83
2023-06-28T17:34:40.418Z,55.09
2023-06-28T17:37:03.676Z,55.07
2023-06-28T17:39:25.434Z,55.48
2023-06-28T17:41:47.350Z,55.42
2023-06-28T17:44:09.201Z,55.28
2023-06-28T17:46:30.885Z,55.36
2023-06-28T17:48:52.629Z,55.67
2023-06-28T17:51:14.392Z,56.02
2023-06-28T17:53:37.284Z,55.83
2023-06-28T17:55:59.006Z,55.81
2023-06-28T17:58:20.714Z,55.80
2023-06-28T18:00:42.752Z,55.33
2023-06-28T18:03:05.700Z,55.45
2023-06-28T18:05:27.467Z,55.55
2023-06-28T18:07:49.188Z,55.50
2023-06-28T18:10:11.354Z,55.64
2023-06-28T18:12:33.025Z,55.92
2023-06-28T18:14:54.705Z,55.98
2023-06-28T18:17:16.353Z,56.58
2023-06-28T18:19:38.194Z,56.72
2023-06-28T18:21:59.874Z,57.02
2023-06-28T18:24:21.606Z,56.99
2023-06-28T18:26:43.339Z,57.09
2023-06-28T18:29:05.050Z,57.34
2023-06-28T18:31:26.820Z,57.15
2023-06-28T18:33:48.596Z,57.48
2023-06-28T18:36:11.191Z,57.47
2023-06-28T18:38:33.072Z,57.87
2023-06-28T18:40:55.389Z,57.93
2023-06-28T18:43:17.005Z,57.95
2023-06-28T18:45:43.559Z,57.71
2023-06-28T18:48:05.683Z,58.02
2023-06-28T18:50:27.368Z,58.31
2023-06-28T18:52:49.034Z,58.08
2023-06-28T18:55:10.793Z,58.27
2023-06-28T18:57:33.714Z,58.52
2023-06-28T18:59:55.468Z,58.30
2023-06-28T19:02:18.112Z,58.61
2023-06-28T19:04:41.291Z,58.27
2023-06-28T19:07:03.075Z,58.60
2023-06-28T19:09:24.724Z,58.40
2023-06-28T19:11:46.467Z,58.28
2023-06-28T19:14:08.294Z,58.79
2023-06-28T19:16:30.043Z,58.88
2023-06-28T19:18:52.082Z,58.84
2023-06-28T19:21:13.860Z,58.81
2023-06-28T19:23:35.733Z,58.67
2023-06-28T19:25:57.470Z,58.89
2023-06-28T19:28:20.864Z,59.00
2023-06-28T19:30:42.921Z,58.88
2023-06-28T19:33:04.971Z,58.87
2023-06-28T19:35:26.628Z,59.00
2023-06-28T19:37:48.267Z,59.27
2023-06-28T19:40:10.933Z,59.59
2023-06-28T19:42:32.599Z,59.68
2023-06-28T19:44:54.367Z,59.75
2023-06-28T19:47:16.446Z,59.79
2023-06-28T19:49:38.203Z,59.93
2023-06-28T19:52:00.556Z,59.92
2023-06-28T19:54:22.514Z,59.98
2023-06-28T19:56:44.401Z,60.33
2023-06-28T19:59:06.189Z,60.40
2023-06-28T20:01:28.057Z,60.61
2023-06-28T20:03:49.820Z,60.75
2023-06-28T20:06:11.623Z,60.80
2023-06-28T20:08:33.428Z,60.97
2023-06-28T20:10:55.126Z,61.40
2023-06-28T20:13:16.783Z,61.13
2023-06-28T20:15:38.636Z,61.77
2023-06-28T20:18:00.399Z,62.00
2023-06-28T20:20:22.323Z,61.99
2023-06-28T20:22:44.033Z,62.10
2023-06-28T20:25:09.703Z,61.94
2023-06-28T20:27:31.780Z,62.13
2023-06-28T20:29:53.469Z,62.26
2023-06-28T20:32:15.222Z,61.90
2023-06-28T20:34:36.945Z,62.34
2023-06-28T20:36:58.766Z,62.04
2023-06-28T20:39:20.514Z,62.59
2023-06-28T20:41:43.315Z,62.69
2023-06-28T20:44:06.580Z,62.73
2023-06-28T20:46:28.291Z,62.54
2023-06-28T20:48:50.134Z,62.97
2023-06-28T20:51:11.798Z,63.61
2023-06-28T20:53:34.189Z,62.93
2023-06-28T20:55:55.889Z,63.00
2023-06-28T20:58:17.576Z,63.31
2023-06-28T21:00:39.340Z,63.15
2023-06-28T21:03:01.040Z,63.09
2023-06-28T21:05:22.802Z,63.28
2023-06-28T21:07:44.616Z,63.11
2023-06-28T21:10:08.697Z,63.68
2023-06-28T21:12:33.203Z,63.99
2023-06-28T21:14:55.058Z,63.85
2023-06-28T21:17:16.856Z,63.84
2023-06-28T21:19:38.530Z,64.40
2023-06-28T21:22:00.220Z,64.26
2023-06-28T21:24:21.898Z,64.56
2023-06-28T21:26:43.625Z,65.01
2023-06-28T21:29:05.364Z,65.02
2023-06-28T21:31:28.778Z,65.32
2023-06-28T21:33:50.807Z,65.39
2023-06-28T21:36:12.571Z,65.70
2023-06-28T21:38:34.657Z,65.82
2023-06-28T21:40:57.872Z,66.09
2023-06-28T21:43:19.893Z,66.24
2023-06-28T21:45:42.137Z,66.37
2023-06-28T21:48:04.323Z,66.33
2023-06-28T21:50:26.105Z,66.58
2023-06-28T21:52:47.797Z,67.17
2023-06-28T21:55:09.737Z,67.07
2023-06-28T21:57:31.410Z,66.90
2023-06-28T21:59:53.068Z,67.21
2023-06-28T22:02:15.195Z,67.14
2023-06-28T22:04:36.874Z,67.27
2023-06-28T22:07:06.606Z,67.18
2023-06-28T22:09:29.482Z,67.32
2023-06-28T22:11:53.305Z,67.10
2023-06-28T22:14:15.297Z,67.23
2023-06-28T22:16:42.629Z,67.15
2023-06-28T22:19:04.966Z,67.12
2023-06-28T22:21:26.686Z,67.33
2023-06-28T22:23:48.356Z,67.25
2023-06-28T22:26:10.119Z,67.36
2023-06-28T22:28:33.606Z,67.85
2023-06-28T22:30:56.950Z,67.67
2023-06-28T22:33:18.692Z,67.62
2023-06-28T22:35:40.662Z,67.66
2023-06-28T22:38:02.465Z,68.07
2023-06-28T22:40:24.344Z,68.09
2023-06-28T22:42:46.065Z,68.39
2023-06-28T22:45:09.913Z,68.23
2023-06-28T22:47:31.732Z,68.18
2023-06-28T22:49:53.389Z,68.40
2023-06-28T22:52:15.230Z,68.23
2023-06-28T22:54:36.940Z,68.09
2023-06-28T22:56:58.702Z,68.16
2023-06-28T22:59:23.256Z,68.43
2023-06-28T23:01:44.860Z,68.33
2023-06-28T23:04:06.471Z,68.68
2023-06-28T23:06:28.296Z,68.42
2023-06-28T23:08:50.037Z,68.52
2023-06-28T23:11:11.670Z,68.84
2023-06-28T23:13:34.133Z,68.96
2023-06-28T23:15:55.884Z,69.03
2023-06-28T23:18:20.918Z,69.07
2023-06-28T23:20:44.424Z,69.29
2023-06-28T23:23:06.100Z,69.08
2023-06-28T23:25:27.861Z,69.30
2023-06-28T23:27:51.681Z,69.48
2023-06-28T23:30:13.988Z,69.62
2023-06-28T23:32:35.740Z,69.64
2023-06-28T23:34:57.481Z,69.81
2023-06-28T23:37:22.834Z,70.02
2023-06-28T23:39:44.761Z,70.11
2023-06-28T23:42:06.652Z,69.79
2023-06-28T23:44:28.346Z,70.17
2023-06-28T23:46:50.015Z,70.22
2023-06-28T23:49:14.821Z,70.45
2023-06-28T23:51:36.436Z,70.63
2023-06-28T23:54:01.062Z,70.42
2023-06-28T23:56:23.272Z,70.37
2023-06-28T23:58:44.980Z,70.71
